Time;durP1;ratioP1;P1;durP2;ratioP2;P2;SDS_P1;SDS_P2;PMS_P1;PMS_P2;Temp;Humidity;BMP_temperature;BMP_pressure;BME280_temperature;BME280_humidity;BME280_pressure;Samples;Min_cycle;Max_cycle;Signal;HPM_P1;HPM_P2
2022/07/04 00:00:09;;;;;;;0.20;0.20;;;19.40;83.90;;;;;;5094499;28;20032;-82
2022/07/04 00:02:37;;;;;;;0.00;0.00;;;19.30;84.50;;;;;;5088599;28;20024;-82
2022/07/04 00:05:03;;;;;;;0.00;0.00;;;19.20;85.70;;;;;;5094588;28;20028;-82
2022/07/04 00:07:29;;;;;;;0.13;0.13;;;19.10;86.50;;;;;;5094491;28;20046;-82
2022/07/04 00:09:55;;;;;;;0.10;0.10;;;19.00;85.50;;;;;;5111683;28;20462;-82
2022/07/04 00:12:20;;;;;;;0.10;0.10;;;19.00;85.40;;;;;;5094536;28;20027;-82
2022/07/04 00:14:46;;;;;;;0.00;0.00;;;18.90;86.30;;;;;;5095607;28;20024;-82
2022/07/04 00:17:12;;;;;;;0.00;0.00;;;18.80;86.40;;;;;;5111689;28;20028;-82
2022/07/04 00:19:37;;;;;;;0.00;0.00;;;18.70;87.20;;;;;;5094376;28;20031;-82
2022/07/04 00:22:03;;;;;;;0.00;0.00;;;18.60;87.10;;;;;;5095579;28;20467;-82
2022/07/04 00:24:29;;;;;;;0.00;0.00;;;18.60;88.20;;;;;;5093842;28;20055;-82
2022/07/04 00:26:55;;;;;;;0.00;0.00;;;18.50;87.90;;;;;;5095621;28;20020;-82
2022/07/04 00:29:20;;;;;;;0.10;0.10;;;18.40;88.10;;;;;;5093999;28;20020;-82
2022/07/04 00:31:46;;;;;;;0.43;0.43;;;18.40;88.30;;;;;;5095321;28;20017;-82
2022/07/04 00:34:12;;;;;;;0.20;0.20;;;18.30;87.90;;;;;;5093880;28;20024;-82
2022/07/04 00:36:37;;;;;;;0.10;0.10;;;18.20;88.10;;;;;;5094140;28;20028;-82
2022/07/04 00:39:03;;;;;;;0.10;0.10;;;18.20;88.70;;;;;;5095056;28;20503;-82
2022/07/04 00:41:29;;;;;;;0.00;0.00;;;18.20;88.40;;;;;;5094261;28;20481;-82
2022/07/04 00:44:03;;;;;;;0.00;0.00;;;18.10;88.50;;;;;;5093737;28;20381;-82
2022/07/04 00:46:29;;;;;;;0.00;0.00;;;18.10;88.70;;;;;;5093248;28;20027;-82
2022/07/04 00:48:54;;;;;;;0.10;0.10;;;18.00;88.70;;;;;;5092798;28;20482;-82
2022/07/04 00:51:20;;;;;;;0.03;0.03;;;18.00;89.90;;;;;;5109651;28;20463;-82
2022/07/04 00:53:46;;;;;;;0.63;0.63;;;17.90;90.30;;;;;;5093152;28;20055;-82
2022/07/04 00:56:11;;;;;;;0.10;0.10;;;17.90;89.40;;;;;;5094484;28;20027;-82
2022/07/04 00:58:37;;;;;;;0.25;0.25;;;17.80;89.40;;;;;;5092470;28;20040;-82
2022/07/04 01:01:04;;;;;;;0.00;0.00;;;17.80;90.10;;;;;;5092908;28;20024;-82
2022/07/04 01:03:29;;;;;;;0.00;0.00;;;17.80;90.00;;;;;;5110078;28;20390;-82
2022/07/04 01:05:59;;;;;;;0.43;0.38;;;17.80;90.20;;;;;;5094705;28;20031;-82
2022/07/04 01:08:25;;;;;;;0.05;0.05;;;17.70;90.20;;;;;;5092956;28;20485;-82
2022/07/04 01:10:51;;;;;;;0.00;0.00;;;17.70;90.10;;;;;;5089703;28;20104;-82
2022/07/04 01:13:23;;;;;;;0.15;0.15;;;17.60;90.40;;;;;;5091335;28;20107;-82
2022/07/04 01:15:53;;;;;;;0.10;0.10;;;17.60;90.60;;;;;;5093218;28;20111;-82
2022/07/04 01:18:18;;;;;;;0.38;0.38;;;17.50;91.30;;;;;;5094761;28;20020;-82
2022/07/04 01:20:44;;;;;;;0.03;0.03;;;17.50;91.70;;;;;;5093034;28;20034;-82
2022/07/04 01:23:10;;;;;;;0.10;0.00;;;17.50;91.30;;;;;;5094783;28;20386;-82
2022/07/04 01:25:36;;;;;;;0.57;0.30;;;17.40;91.40;;;;;;5094235;28;20052;-82
2022/07/04 01:28:03;;;;;;;0.00;0.00;;;17.40;91.40;;;;;;5093287;28;20111;-82
2022/07/04 01:30:29;;;;;;;0.03;0.03;;;17.30;91.50;;;;;;5093151;28;20030;-82
2022/07/04 01:32:56;;;;;;;0.00;0.00;;;17.30;91.50;;;;;;5093184;28;20024;-82
2022/07/04 01:35:22;;;;;;;0.00;0.00;;;17.30;91.90;;;;;;5093453;28;20420;-82
2022/07/04 01:38:13;;;;;;;0.10;0.10;;;17.30;92.40;;;;;;5092869;28;20031;-82
2022/07/04 01:40:39;;;;;;;0.00;0.00;;;17.30;92.10;;;;;;5092644;28;20119;-82
2022/07/04 01:43:05;;;;;;;0.00;0.00;;;17.20;91.80;;;;;;5094250;28;20534;-82
2022/07/04 01:45:37;;;;;;;0.00;0.00;;;17.20;91.80;;;;;;5094131;28;20024;-82
2022/07/04 01:48:05;;;;;;;0.00;0.00;;;17.20;92.20;;;;;;5092788;28;20020;-82
2022/07/04 01:50:30;;;;;;;1.83;0.85;;;17.20;92.20;;;;;;5093773;28;20022;-82
2022/07/04 01:52:56;;;;;;;0.00;0.00;;;17.20;92.20;;;;;;5092934;28;20453;-82
2022/07/04 01:55:22;;;;;;;0.10;0.03;;;17.20;92.20;;;;;;5092672;28;20047;-82
2022/07/04 01:57:47;;;;;;;0.00;0.00;;;17.10;92.50;;;;;;5093623;28;20073;-82
2022/07/04 02:02:57;;;;;;;0.00;0.00;;;17.10;92.90;;;;;;5094166;28;20039;-82
2022/07/04 02:05:23;;;;;;;0.13;0.13;;;17.10;93.70;;;;;;5092329;28;20024;-82
2022/07/04 02:07:49;;;;;;;0.08;0.08;;;17.10;93.20;;;;;;5092553;28;20019;-82
2022/07/04 02:10:15;;;;;;;0.00;0.00;;;17.00;94.00;;;;;;5093771;28;20031;-82
2022/07/04 02:15:25;;;;;;;0.00;0.00;;;17.10;94.10;;;;;;5093554;28;20398;-82
2022/07/04 02:17:51;;;;;;;0.32;0.10;;;17.10;94.50;;;;;;5093692;28;20032;-82
2022/07/04 02:20:17;;;;;;;0.00;0.00;;;17.10;94.20;;;;;;5090166;28;20367;-82
2022/07/04 02:22:43;;;;;;;0.00;0.00;;;17.00;94.60;;;;;;5088903;28;20078;-82
2022/07/04 02:25:08;;;;;;;0.25;0.25;;;17.10;94.40;;;;;;5092138;28;20040;-82
2022/07/04 02:27:34;;;;;;;0.13;0.08;;;17.10;94.50;;;;;;5092161;28;20029;-82
2022/07/04 02:30:00;;;;;;;0.00;0.00;;;17.10;93.90;;;;;;5092432;28;20114;-82
2022/07/04 02:32:25;;;;;;;0.20;0.20;;;17.20;93.90;;;;;;5091963;28;20052;-82
2022/07/04 02:34:51;;;;;;;0.00;0.00;;;17.30;94.10;;;;;;5090941;28;20024;-82
2022/07/04 02:37:17;;;;;;;0.03;0.03;;;17.30;94.10;;;;;;5092109;28;20474;-83
2022/07/04 02:39:43;;;;;;;0.15;0.15;;;17.30;94.40;;;;;;5092939;28;20111;-82
2022/07/04 02:42:09;;;;;;;0.10;0.10;;;17.30;95.50;;;;;;5091142;28;20028;-82
2022/07/04 02:44:34;;;;;;;0.00;0.00;;;17.30;94.90;;;;;;5093064;28;20491;-82
2022/07/04 02:47:00;;;;;;;0.00;0.00;;;17.30;94.60;;;;;;5094791;28;20016;-82
2022/07/04 02:49:26;;;;;;;0.00;0.00;;;17.40;94.70;;;;;;5096133;28;20589;-82
2022/07/04 02:51:52;;;;;;;0.00;0.00;;;17.40;94.60;;;;;;5095959;28;20070;-82
2022/07/04 02:54:17;;;;;;;0.00;0.00;;;17.40;95.00;;;;;;5097443;28;20093;-82
2022/07/04 02:56:43;;;;;;;0.10;0.10;;;17.50;94.80;;;;;;5097021;28;20028;-82
2022/07/04 02:59:09;;;;;;;0.00;0.00;;;17.50;94.90;;;;;;5113040;28;20478;-82
2022/07/04 03:01:35;;;;;;;0.47;0.35;;;17.50;94.90;;;;;;5113045;28;20032;-82
2022/07/04 03:04:00;;;;;;;0.00;0.00;;;17.60;95.20;;;;;;5095748;28;20123;-82
2022/07/04 03:06:26;;;;;;;0.00;0.00;;;17.60;95.80;;;;;;5112795;28;20024;-84
2022/07/04 03:08:52;;;;;;;0.00;0.00;;;17.70;96.60;;;;;;5095567;28;20377;-85
2022/07/04 03:11:19;;;;;;;0.00;0.00;;;17.70;96.60;;;;;;5095735;28;20016;-85
2022/07/04 03:13:45;;;;;;;0.32;0.32;;;17.80;95.50;;;;;;5096952;28;20028;-85
2022/07/04 03:16:11;;;;;;;0.55;0.17;;;17.80;95.70;;;;;;5095655;28;20023;-85
2022/07/04 03:18:37;;;;;;;0.35;0.35;;;17.90;95.00;;;;;;5096994;28;20039;-85
2022/07/04 03:21:06;;;;;;;0.00;0.00;;;18.00;94.40;;;;;;5095750;28;20028;-85
2022/07/04 03:23:33;;;;;;;2.17;0.10;;;18.10;94.20;;;;;;5095250;28;20020;-84
2022/07/04 03:25:59;;;;;;;0.57;0.57;;;18.30;93.90;;;;;;5096712;28;20020;-85
2022/07/04 03:28:25;;;;;;;0.13;0.13;;;18.40;94.20;;;;;;5096820;28;20363;-85
2022/07/04 03:30:51;;;;;;;0.40;0.40;;;18.50;93.30;;;;;;5089424;28;20369;-85
2022/07/04 03:33:17;;;;;;;6.32;0.30;;;18.70;93.20;;;;;;5094958;28;20020;-85
2022/07/04 03:35:43;;;;;;;0.00;0.00;;;18.70;93.70;;;;;;5095512;28;20032;-85
2022/07/04 03:38:09;;;;;;;0.13;0.13;;;18.80;93.30;;;;;;5095232;28;20059;-85
2022/07/04 03:40:35;;;;;;;0.65;0.10;;;18.90;93.60;;;;;;5096740;28;20031;-85
2022/07/04 03:43:03;;;;;;;0.55;0.30;;;19.00;92.80;;;;;;5095372;28;20036;-85
2022/07/04 03:45:29;;;;;;;0.15;0.15;;;19.10;93.00;;;;;;5095075;28;20019;-85
2022/07/04 03:47:56;;;;;;;0.00;0.00;;;19.20;92.80;;;;;;5096819;28;20469;-85
2022/07/04 03:50:22;;;;;;;0.00;0.00;;;19.30;92.60;;;;;;5096697;28;20020;-86
2022/07/04 03:52:48;;;;;;;0.10;0.10;;;19.40;92.20;;;;;;5096712;28;20024;-85
2022/07/04 03:55:14;;;;;;;1.55;0.28;;;19.50;92.00;;;;;;5095200;28;20082;-85
2022/07/04 03:57:39;;;;;;;0.10;0.10;;;19.60;92.00;;;;;;5094407;28;20024;-85
2022/07/04 04:00:07;;;;;;;0.00;0.00;;;19.70;91.50;;;;;;5096136;28;20043;-85
2022/07/04 04:02:34;;;;;;;0.45;0.45;;;19.80;91.20;;;;;;5097041;28;20406;-87
2022/07/04 04:07:56;;;;;;;0.00;0.00;;;20.00;90.40;;;;;;5086609;28;20063;-87
2022/07/04 04:10:22;;;;;;;0.00;0.00;;;20.10;90.50;;;;;;5095317;28;20023;-87
2022/07/04 04:12:48;;;;;;;0.20;0.20;;;20.20;90.50;;;;;;5095394;28;20028;-87
2022/07/04 04:15:14;;;;;;;0.70;0.70;;;20.30;90.20;;;;;;5095229;28;20024;-87
2022/07/04 04:17:39;;;;;;;1.13;0.63;;;20.50;89.90;;;;;;5096884;28;20028;-90
2022/07/04 04:20:06;;;;;;;3.40;1.80;;;20.60;88.40;;;;;;5097322;28;20024;-89
2022/07/04 04:22:31;;;;;;;0.85;0.85;;;20.80;86.70;;;;;;5097991;28;20023;-87
2022/07/04 04:24:57;;;;;;;0.95;0.93;;;20.90;86.50;;;;;;5094626;28;20486;-87
2022/07/04 04:27:23;;;;;;;0.43;0.43;;;21.10;84.60;;;;;;5096126;28;20027;-87
2022/07/04 04:29:49;;;;;;;0.40;0.38;;;21.30;83.40;;;;;;5096144;28;20021;-87
2022/07/04 04:32:15;;;;;;;0.00;0.00;;;21.40;81.70;;;;;;5095942;28;20016;-87
2022/07/04 04:34:40;;;;;;;0.30;0.30;;;21.60;81.20;;;;;;5096090;28;20059;-87
2022/07/04 04:37:06;;;;;;;0.00;0.00;;;21.80;80.60;;;;;;5111541;28;20449;-83
2022/07/04 04:39:31;;;;;;;0.95;0.60;;;22.00;79.60;;;;;;5094443;28;20028;-83
2022/07/04 04:41:57;;;;;;;0.10;0.10;;;22.10;78.30;;;;;;5095584;28;20049;-83
2022/07/04 04:44:23;;;;;;;0.28;0.28;;;22.30;76.60;;;;;;5094261;28;20417;-83
2022/07/04 04:46:48;;;;;;;0.10;0.10;;;22.40;76.00;;;;;;5094447;28;20016;-83
2022/07/04 04:49:14;;;;;;;0.00;0.00;;;22.50;76.50;;;;;;5095331;28;20024;-83
2022/07/04 04:51:40;;;;;;;0.00;0.00;;;22.70;76.20;;;;;;5095462;28;20115;-83
2022/07/04 04:54:06;;;;;;;0.55;0.55;;;22.80;74.90;;;;;;5094061;28;20055;-82
2022/07/04 04:56:31;;;;;;;0.30;0.30;;;22.80;74.70;;;;;;5095340;28;20024;-83
2022/07/04 04:58:57;;;;;;;0.00;0.00;;;22.90;74.70;;;;;;5093987;28;20063;-83
2022/07/04 05:01:23;;;;;;;0.03;0.03;;;23.00;74.30;;;;;;5094098;28;20077;-84
2022/07/04 05:03:48;;;;;;;2.40;0.15;;;23.20;73.40;;;;;;5110848;28;20079;-83
2022/07/04 05:06:14;;;;;;;0.32;0.32;;;23.30;73.10;;;;;;5094940;28;20379;-84
2022/07/04 05:08:40;;;;;;;0.13;0.13;;;23.30;73.00;;;;;;5093053;28;20034;-84
2022/07/04 05:11:06;;;;;;;0.00;0.00;;;23.50;73.90;;;;;;5094966;28;20016;-83
2022/07/04 05:13:32;;;;;;;0.20;0.20;;;23.60;73.50;;;;;;5093863;28;20031;-83
2022/07/04 05:15:58;;;;;;;0.32;0.22;;;23.70;73.00;;;;;;5093909;28;20023;-83
2022/07/04 05:18:24;;;;;;;0.10;0.10;;;23.70;73.30;;;;;;5093634;28;20385;-83
2022/07/04 05:20:50;;;;;;;0.10;0.10;;;23.80;73.50;;;;;;5093616;28;20020;-83
2022/07/04 05:23:15;;;;;;;0.00;0.00;;;23.90;71.80;;;;;;5110561;28;20032;-83
2022/07/04 05:25:41;;;;;;;0.25;0.25;;;23.90;70.40;;;;;;5110322;28;20392;-83
2022/07/04 05:28:07;;;;;;;0.00;0.00;;;23.90;69.70;;;;;;5094564;28;20024;-82
2022/07/04 05:30:32;;;;;;;0.45;0.45;;;23.90;69.60;;;;;;5110175;28;20022;-83
2022/07/04 05:33:00;;;;;;;0.43;0.43;;;23.90;69.60;;;;;;5094476;28;20060;-82
2022/07/04 05:35:27;;;;;;;0.25;0.25;;;23.90;69.60;;;;;;5094445;28;20050;-82
2022/07/04 05:37:53;;;;;;;0.00;0.00;;;23.90;69.60;;;;;;5110074;28;20056;-84
2022/07/04 05:40:21;;;;;;;0.20;0.20;;;24.00;70.40;;;;;;5094495;28;20024;-83
2022/07/04 05:42:47;;;;;;;0.20;0.20;;;24.10;69.30;;;;;;5094689;28;20020;-84
2022/07/04 05:45:12;;;;;;;1.23;0.35;;;24.20;71.30;;;;;;5094798;28;20489;-84
2022/07/04 05:47:38;;;;;;;0.20;0.20;;;24.30;70.40;;;;;;5110094;28;20433;-84
2022/07/04 05:50:04;;;;;;;0.47;0.47;;;24.40;69.10;;;;;;5093018;28;20413;-85
2022/07/04 05:52:30;;;;;;;0.30;0.30;;;24.50;69.00;;;;;;5094674;28;20034;-83
2022/07/04 05:54:55;;;;;;;0.03;0.03;;;24.60;69.30;;;;;;5110113;28;20458;-84
2022/07/04 05:57:21;;;;;;;0.75;0.75;;;24.70;69.40;;;;;;5109941;28;20025;-84
2022/07/04 05:59:47;;;;;;;0.13;0.13;;;24.70;69.40;;;;;;5094433;28;20351;-84
2022/07/04 06:02:13;;;;;;;1.60;0.45;;;24.80;70.10;;;;;;5093936;28;20109;-85
2022/07/04 06:04:38;;;;;;;0.70;0.50;;;24.80;70.10;;;;;;5109763;28;20444;-85
2022/07/04 06:07:04;;;;;;;0.10;0.10;;;24.90;69.70;;;;;;5094310;28;20031;-83
2022/07/04 06:09:30;;;;;;;0.32;0.32;;;24.90;70.30;;;;;;5093079;28;20153;-84
2022/07/04 06:11:55;;;;;;;0.20;0.13;;;24.80;71.30;;;;;;5092810;28;20470;-85
2022/07/04 06:14:21;;;;;;;0.30;0.20;;;24.90;71.80;;;;;;5094122;28;20027;-84
2022/07/04 06:16:46;;;;;;;0.20;0.20;;;24.90;68.50;;;;;;5093843;28;20040;-84
2022/07/04 06:19:12;;;;;;;2.15;0.63;;;25.00;68.50;;;;;;5092676;28;20035;-84
2022/07/04 06:21:38;;;;;;;3.30;1.13;;;25.00;68.50;;;;;;5093727;28;20020;-84
2022/07/04 06:24:04;;;;;;;0.13;0.13;;;25.10;68.30;;;;;;5093486;28;20133;-84
2022/07/04 06:26:30;;;;;;;0.43;0.43;;;25.10;69.20;;;;;;5092347;28;20039;-84
2022/07/04 06:28:56;;;;;;;0.47;0.47;;;25.10;69.30;;;;;;5092387;28;20036;-84
2022/07/04 06:31:21;;;;;;;0.00;0.00;;;25.20;68.80;;;;;;5092717;28;20111;-84
2022/07/04 06:36:31;;;;;;;0.00;0.00;;;25.40;67.90;;;;;;5094379;28;20028;-85
2022/07/04 06:38:58;;;;;;;0.30;0.30;;;25.50;68.50;;;;;;5092749;28;20164;-85
2022/07/04 06:41:23;;;;;;;0.45;0.45;;;25.60;69.00;;;;;;5092546;28;20470;-85
2022/07/04 06:43:49;;;;;;;0.17;0.17;;;25.60;68.70;;;;;;5093720;28;20081;-85
2022/07/04 06:46:15;;;;;;;0.85;0.85;;;25.70;69.10;;;;;;5092498;28;20500;-85
2022/07/04 06:48:41;;;;;;;0.25;0.25;;;25.70;68.90;;;;;;5093654;28;20017;-85
2022/07/04 06:51:06;;;;;;;2.67;1.00;;;25.70;70.00;;;;;;5093647;28;20020;-85
2022/07/04 06:53:32;;;;;;;0.45;0.45;;;25.80;69.40;;;;;;5093934;28;20020;-85
2022/07/04 06:55:58;;;;;;;0.20;0.20;;;25.90;69.20;;;;;;5092151;28;20054;-84
2022/07/04 06:58:23;;;;;;;2.83;0.73;;;25.90;68.30;;;;;;5092435;28;20118;-85
2022/07/04 07:00:49;;;;;;;0.52;0.35;;;26.10;68.80;;;;;;5092441;28;20115;-85
2022/07/04 07:03:15;;;;;;;0.22;0.22;;;26.20;68.40;;;;;;5093587;28;20046;-84
2022/07/04 07:05:40;;;;;;;0.40;0.40;;;26.10;67.30;;;;;;5093363;28;20021;-84
2022/07/04 07:08:06;;;;;;;0.77;0.77;;;26.20;67.40;;;;;;5092460;28;20081;-84
2022/07/04 07:10:32;;;;;;;0.50;0.50;;;26.20;67.70;;;;;;5092223;28;20039;-84
2022/07/04 07:13:02;;;;;;;0.70;0.65;;;26.20;66.80;;;;;;5092123;28;20470;-84
2022/07/04 07:15:28;;;;;;;0.05;0.05;;;26.10;67.80;;;;;;5092278;28;20115;-84
2022/07/04 07:17:53;;;;;;;0.08;0.08;;;26.20;67.60;;;;;;5093441;28;20386;-84
2022/07/04 07:20:19;;;;;;;0.03;0.03;;;26.10;67.60;;;;;;5093664;28;20103;-85
2022/07/04 07:22:45;;;;;;;0.22;0.17;;;26.10;67.60;;;;;;5093279;28;20061;-84
2022/07/04 07:25:11;;;;;;;0.30;0.30;;;26.20;68.50;;;;;;5093114;28;20048;-85
2022/07/04 07:27:38;;;;;;;1.08;0.17;;;26.30;68.00;;;;;;5093426;28;20370;-85
2022/07/04 07:30:05;;;;;;;1.00;0.47;;;26.20;67.50;;;;;;5093386;28;20073;-85
2022/07/04 07:32:31;;;;;;;0.28;0.28;;;26.20;68.10;;;;;;5095049;28;20417;-84
2022/07/04 07:34:57;;;;;;;0.32;0.32;;;26.20;67.50;;;;;;5095758;28;20028;-84
2022/07/04 07:37:23;;;;;;;0.20;0.20;;;26.30;67.50;;;;;;5096022;28;20077;-85
2022/07/04 07:39:49;;;;;;;1.85;0.20;;;26.40;68.10;;;;;;5095561;28;20459;-85
2022/07/04 07:42:16;;;;;;;0.10;0.10;;;26.50;65.30;;;;;;5096758;28;20051;-84
2022/07/04 07:44:41;;;;;;;0.88;0.85;;;26.50;67.40;;;;;;5096669;28;20035;-85
2022/07/04 07:47:07;;;;;;;0.40;0.40;;;26.60;68.10;;;;;;5112925;28;20024;-84
2022/07/04 07:49:33;;;;;;;0.50;0.50;;;26.60;68.70;;;;;;5095597;28;20466;-84
2022/07/04 07:51:58;;;;;;;1.55;0.63;;;26.70;67.90;;;;;;5096539;28;20059;-85
2022/07/04 07:54:24;;;;;;;0.25;0.25;;;26.80;67.50;;;;;;5096590;28;20051;-85
2022/07/04 07:56:50;;;;;;;0.05;0.05;;;26.90;67.10;;;;;;5095232;28;20059;-84
2022/07/04 07:59:16;;;;;;;0.65;0.32;;;26.80;65.30;;;;;;5112123;28;20069;-84
2022/07/04 08:01:42;;;;;;;1.58;0.68;;;26.90;66.70;;;;;;5095323;28;20081;-84
2022/07/04 08:06:52;;;;;;;0.20;0.17;;;27.00;67.00;;;;;;5096545;28;20086;-84
2022/07/04 08:09:17;;;;;;;1.30;0.77;;;27.00;65.90;;;;;;5095046;28;20024;-85
2022/07/04 08:11:43;;;;;;;0.25;0.25;;;27.00;65.10;;;;;;5095030;28;20026;-84
2022/07/04 08:14:09;;;;;;;0.47;0.47;;;26.90;65.00;;;;;;5094947;28;20024;-85
2022/07/04 08:16:35;;;;;;;0.28;0.28;;;26.90;64.10;;;;;;5095970;28;20035;-85
2022/07/04 08:19:02;;;;;;;0.50;0.50;;;26.90;65.40;;;;;;5094829;28;20020;-85
2022/07/04 08:21:27;;;;;;;0.63;0.63;;;27.00;65.30;;;;;;5096009;28;20095;-84
2022/07/04 08:23:53;;;;;;;0.08;0.08;;;27.00;65.00;;;;;;5094638;28;20476;-84
2022/07/04 08:26:19;;;;;;;0.40;0.40;;;27.00;65.90;;;;;;5094744;28;20032;-85
2022/07/04 08:28:45;;;;;;;0.28;0.28;;;27.20;64.70;;;;;;5111622;28;20417;-85
2022/07/04 08:31:10;;;;;;;0.50;0.50;;;27.30;65.60;;;;;;5094735;28;20062;-84
2022/07/04 08:33:36;;;;;;;1.55;0.75;;;27.30;64.10;;;;;;5095891;28;20020;-84
2022/07/04 08:36:03;;;;;;;0.10;0.10;;;27.40;63.40;;;;;;5095788;28;20020;-84
2022/07/04 08:38:29;;;;;;;0.68;0.68;;;27.50;64.00;;;;;;5094470;28;20036;-84
2022/07/04 08:41:01;;;;;;;1.10;0.95;;;27.50;64.00;;;;;;5094324;28;20077;-84
2022/07/04 08:43:32;;;;;;;0.00;0.00;;;27.50;63.60;;;;;;5094495;28;20359;-85
2022/07/04 08:45:59;;;;;;;0.25;0.10;;;27.50;63.60;;;;;;5094184;28;20020;-83
2022/07/04 08:48:28;;;;;;;0.38;0.38;;;27.60;62.10;;;;;;5095578;28;20533;-84
2022/07/04 08:51:05;;;;;;;0.57;0.57;;;27.50;62.40;;;;;;5094416;28;20110;-84
2022/07/04 08:53:35;;;;;;;0.45;0.45;;;27.50;62.00;;;;;;5094163;28;20028;-84
2022/07/04 08:58:47;;;;;;;0.25;0.25;;;27.50;61.50;;;;;;5095961;28;20042;-84
2022/07/04 09:01:14;;;;;;;0.15;0.15;;;27.60;61.60;;;;;;5093798;28;20063;-84
2022/07/04 09:03:42;;;;;;;0.17;0.17;;;27.60;61.90;;;;;;5093890;28;20020;-84
2022/07/04 09:06:09;;;;;;;0.20;0.10;;;27.60;61.40;;;;;;5093888;28;20111;-84
2022/07/04 09:08:35;;;;;;;0.10;0.10;;;27.70;61.70;;;;;;5094267;28;20027;-84
2022/07/04 09:11:02;;;;;;;0.22;0.20;;;27.80;60.50;;;;;;5093772;28;20058;-84
2022/07/04 09:13:29;;;;;;;0.50;0.50;;;27.80;60.60;;;;;;5095092;28;20016;-84
2022/07/04 09:15:55;;;;;;;1.30;0.88;;;27.90;58.60;;;;;;5094049;28;20077;-85
2022/07/04 09:18:25;;;;;;;0.85;0.63;;;27.90;59.50;;;;;;5093569;28;20425;-84
2022/07/04 09:20:52;;;;;;;0.32;0.28;;;28.00;57.90;;;;;;5093845;28;20024;-85
2022/07/04 09:23:28;;;;;;;0.28;0.28;;;28.00;59.40;;;;;;5094674;28;20471;-84
2022/07/04 09:26:20;;;;;;;0.35;0.35;;;28.10;58.00;;;;;;5094578;28;20059;-84
2022/07/04 09:28:53;;;;;;;0.75;0.73;;;28.10;57.30;;;;;;5093527;28;20490;-85
2022/07/04 09:31:24;;;;;;;0.30;0.30;;;28.10;57.30;;;;;;5093540;28;20024;-84
2022/07/04 09:33:54;;;;;;;0.43;0.43;;;28.10;55.90;;;;;;5093545;28;20111;-85
2022/07/04 09:36:22;;;;;;;0.20;0.20;;;28.10;56.60;;;;;;5093354;28;20024;-84
2022/07/04 09:39:15;;;;;;;0.90;0.80;;;28.00;56.70;;;;;;5093482;28;20584;-84
2022/07/04 09:42:00;;;;;;;0.30;0.30;;;28.10;56.90;;;;;;5093240;28;20371;-84
2022/07/04 09:44:28;;;;;;;0.17;0.17;;;28.00;56.50;;;;;;5093318;28;20024;-84
2022/07/04 09:46:55;;;;;;;0.70;0.70;;;28.10;57.30;;;;;;5093293;28;20020;-85
2022/07/04 09:49:21;;;;;;;0.25;0.25;;;28.20;57.60;;;;;;5093287;28;20016;-84
2022/07/04 09:51:50;;;;;;;0.60;0.60;;;28.30;56.70;;;;;;5093120;28;20020;-84
2022/07/04 09:54:16;;;;;;;0.00;0.00;;;28.40;57.80;;;;;;5092644;28;20376;-84
2022/07/04 09:56:52;;;;;;;0.00;0.00;;;28.40;59.10;;;;;;5093029;28;20084;-85
2022/07/04 09:59:19;;;;;;;0.52;0.52;;;28.50;58.40;;;;;;5093108;28;20017;-84
2022/07/04 10:01:45;;;;;;;0.00;0.00;;;28.60;56.90;;;;;;5094369;28;20047;-84
2022/07/04 10:04:12;;;;;;;0.28;0.20;;;28.60;57.10;;;;;;5094161;28;20020;-85
2022/07/04 10:06:40;;;;;;;0.55;0.20;;;28.70;57.60;;;;;;5092911;28;20024;-85
2022/07/04 10:09:14;;;;;;;0.32;0.32;;;28.80;57.40;;;;;;5094046;28;20048;-84
2022/07/04 10:11:41;;;;;;;0.40;0.10;;;28.70;56.90;;;;;;5092677;28;20020;-84
2022/07/04 10:14:09;;;;;;;0.00;0.00;;;28.70;56.90;;;;;;5093916;28;20382;-84
2022/07/04 10:16:35;;;;;;;1.08;0.93;;;28.60;56.60;;;;;;5092694;28;20027;-84
2022/07/04 10:19:02;;;;;;;0.25;0.20;;;28.70;56.70;;;;;;5094157;28;20022;-84
2022/07/04 10:21:29;;;;;;;0.00;0.00;;;28.70;58.60;;;;;;5092503;28;20020;-84
2022/07/04 10:23:56;;;;;;;0.35;0.35;;;28.70;56.00;;;;;;5093894;28;20063;-84
2022/07/04 10:26:22;;;;;;;0.00;0.00;;;28.60;56.30;;;;;;5092869;28;20478;-84
2022/07/04 10:28:52;;;;;;;0.05;0.05;;;28.70;56.10;;;;;;5092616;28;20028;-84
2022/07/04 10:31:25;;;;;;;0.10;0.08;;;28.70;57.10;;;;;;5092460;28;20044;-84
2022/07/04 10:33:52;;;;;;;0.52;0.52;;;28.60;55.70;;;;;;5092639;28;20035;-84
2022/07/04 10:36:20;;;;;;;1.30;0.38;;;28.70;56.10;;;;;;5093975;28;20024;-84
2022/07/04 10:39:01;;;;;;;0.10;0.10;;;28.70;55.90;;;;;;5092427;28;20031;-84
2022/07/04 10:41:29;;;;;;;0.05;0.05;;;28.80;55.80;;;;;;5093720;28;20463;-84
2022/07/04 10:44:04;;;;;;;2.85;0.52;;;28.90;55.70;;;;;;5092748;28;20025;-84
2022/07/04 10:46:32;;;;;;;0.20;0.20;;;28.90;54.70;;;;;;5092569;28;20020;-84
2022/07/04 10:49:19;;;;;;;0.50;0.50;;;29.10;57.00;;;;;;5093976;28;20027;-84
2022/07/04 10:51:46;;;;;;;0.15;0.15;;;29.10;56.50;;;;;;5108868;28;20482;-84
2022/07/04 10:54:31;;;;;;;2.05;0.95;;;29.20;55.10;;;;;;5092303;28;20487;-86
2022/07/04 10:57:07;;;;;;;0.75;0.43;;;29.00;56.10;;;;;;5092448;28;20020;-85
2022/07/04 10:59:32;;;;;;;0.10;0.10;;;29.20;56.30;;;;;;5092389;28;20021;-84
2022/07/04 11:02:07;;;;;;;0.10;0.10;;;29.30;55.90;;;;;;5092324;28;20021;-84
2022/07/04 11:04:51;;;;;;;0.30;0.30;;;29.30;55.80;;;;;;5093496;28;20056;-84
2022/07/04 11:07:43;;;;;;;0.20;0.20;;;29.40;54.90;;;;;;5094881;28;20356;-84
2022/07/04 11:10:16;;;;;;;0.40;0.20;;;29.40;54.10;;;;;;5095921;28;20028;-84
2022/07/04 11:12:54;;;;;;;0.03;0.03;;;29.20;55.60;;;;;;5096192;28;20040;-85
2022/07/04 11:15:26;;;;;;;0.22;0.22;;;29.30;55.60;;;;;;5097282;28;20055;-84
2022/07/04 11:17:54;;;;;;;0.10;0.10;;;29.20;55.30;;;;;;5097433;28;20020;-84
2022/07/04 11:20:20;;;;;;;0.15;0.15;;;29.40;56.00;;;;;;5097469;28;20089;-84
2022/07/04 11:22:46;;;;;;;1.27;1.00;;;29.60;56.10;;;;;;5095791;28;20020;-84
2022/07/04 11:25:12;;;;;;;0.20;0.20;;;29.60;56.00;;;;;;5095586;28;20582;-84
2022/07/04 11:27:38;;;;;;;0.25;0.25;;;29.70;55.40;;;;;;5095888;28;20059;-85
2022/07/04 11:30:05;;;;;;;0.43;0.43;;;29.70;55.40;;;;;;5095575;28;20024;-84
2022/07/04 11:32:32;;;;;;;0.28;0.28;;;29.90;55.00;;;;;;5095737;28;20027;-84
2022/07/04 11:34:58;;;;;;;0.50;0.38;;;29.90;55.00;;;;;;5097109;28;20485;-84
2022/07/04 11:37:24;;;;;;;0.22;0.22;;;30.00;54.90;;;;;;5096703;28;20024;-84
2022/07/04 11:45:02;;;;;;;0.30;0.30;;;30.00;55.10;;;;;;5095687;28;20023;-85
2022/07/04 11:45:52;;;;;;;;;;;30.40;56.00;;;;;;5097776;28;20069;-85
2022/07/04 11:48:25;;;;;;;0.30;0.30;;;30.60;55.10;;;;;;5096818;28;19904;-85
2022/07/04 11:50:51;;;;;;;0.10;0.10;;;31.10;55.60;;;;;;5096535;28;20039;-85
2022/07/04 11:53:18;;;;;;;0.60;0.30;;;31.70;54.70;;;;;;5095204;28;20382;-85
2022/07/04 11:55:57;;;;;;;0.52;0.52;;;32.30;53.30;;;;;;5096372;28;20027;-85
2022/07/04 11:58:24;;;;;;;0.65;0.65;;;33.10;53.90;;;;;;5095254;28;20024;-85
2022/07/04 12:00:49;;;;;;;0.98;0.47;;;33.70;51.50;;;;;;5096335;28;20039;-85
2022/07/04 12:03:15;;;;;;;0.47;0.30;;;33.80;50.40;;;;;;5096439;28;20382;-85
2022/07/04 12:05:43;;;;;;;0.35;0.35;;;34.20;51.10;;;;;;5096268;28;20117;-85
2022/07/04 12:08:09;;;;;;;0.95;0.95;;;34.90;50.30;;;;;;5096494;28;20051;-86
2022/07/04 12:10:35;;;;;;;0.60;0.60;;;35.60;49.90;;;;;;5096141;28;20052;-85
2022/07/04 12:13:08;;;;;;;0.88;0.75;;;36.50;49.00;;;;;;5094440;28;20020;-85
2022/07/04 12:15:42;;;;;;;0.30;0.30;;;37.30;47.70;;;;;;5094777;28;20032;-85
2022/07/04 12:18:31;;;;;;;0.63;0.43;;;37.80;47.00;;;;;;5094489;28;20120;-85
2022/07/04 12:21:12;;;;;;;0.38;0.38;;;37.70;46.10;;;;;;5096004;28;20020;-86
2022/07/04 12:23:39;;;;;;;0.47;0.47;;;38.30;45.70;;;;;;5094661;28;20489;-85
2022/07/04 12:26:06;;;;;;;0.55;0.55;;;38.80;46.20;;;;;;5111536;28;20044;-85
2022/07/04 12:28:38;;;;;;;0.10;0.10;;;39.10;45.80;;;;;;5095877;28;20020;-85
2022/07/04 12:31:04;;;;;;;0.17;0.17;;;39.40;44.80;;;;;;5094564;28;20478;-86
2022/07/04 12:33:30;;;;;;;0.30;0.30;;;39.50;44.90;;;;;;5095858;28;20035;-85
2022/07/04 12:36:02;;;;;;;0.08;0.08;;;39.50;44.20;;;;;;5094396;28;20024;-85
2022/07/04 12:38:27;;;;;;;0.20;0.20;;;39.50;44.60;;;;;;5095904;28;20020;-86
2022/07/04 12:41:05;;;;;;;0.50;0.50;;;39.30;44.90;;;;;;5094188;28;20020;-86
2022/07/04 12:43:43;;;;;;;0.00;0.00;;;38.70;45.40;;;;;;5094342;28;20422;-85
2022/07/04 12:46:33;;;;;;;0.73;0.43;;;38.40;45.30;;;;;;5094040;28;20031;-85
2022/07/04 12:49:02;;;;;;;0.40;0.40;;;39.00;45.00;;;;;;5095376;28;20256;-85
2022/07/04 12:51:29;;;;;;;0.80;0.80;;;39.30;44.60;;;;;;5095511;28;20477;-85
2022/07/04 12:53:56;;;;;;;0.50;0.50;;;39.00;45.10;;;;;;5095363;28;20055;-85
2022/07/04 12:56:34;;;;;;;0.30;0.30;;;38.40;44.40;;;;;;5095127;28;20371;-85
2022/07/04 12:59:02;;;;;;;0.10;0.10;;;38.50;44.10;;;;;;5094032;28;20024;-85
2022/07/04 13:01:28;;;;;;;0.10;0.10;;;39.00;45.00;;;;;;5095202;28;20133;-85
2022/07/04 13:03:54;;;;;;;0.40;0.40;;;39.50;44.00;;;;;;5093903;28;20037;-86
2022/07/04 13:06:20;;;;;;;0.52;0.25;;;39.40;43.70;;;;;;5095345;28;20471;-85
2022/07/04 13:08:46;;;;;;;0.28;0.28;;;39.70;44.30;;;;;;5095248;28;20028;-86